Terminal Aerodrome Forecast
Issued by NWS North Platte, NE

Home | Current Version | Previous Version | Graphics & Text | Print | Product List | Glossary On
Versions: 1 2 3 4 5 6 7 8 9 10 11 12 13 14 15 16 17
000
FTUS43 KLBF 141620 AAA
TAFVTN
TAF AMD
KVTN 141620Z 1416/1512 29005KT 4SM BR VCSH OVC015
     FM141800 33015G28KT P6SM -SHRA OVC020
     FM141900 33025G40KT P6SM VCSH OVC020
     FM150000 32018G25KT P6SM BKN050
     FM150300 30012KT P6SM SCT250
     FM150900 28006KT P6SM SKC=

USA.gov is the U.S. government's official web portal to all federal, state and local government web resources and services.